sensor_id;sensor_type;location;lat;lon;timestamp;P1;durP1;ratioP1;P2;durP2;ratioP2
49444;SDS011;35323;43.080;-81.378;2023-04-16T00:01:40;13.23;;;8.50;;
49444;SDS011;35323;43.080;-81.378;2023-04-16T00:04:07;9.98;;;8.98;;
49444;SDS011;35323;43.080;-81.378;2023-04-16T00:06:36;10.32;;;7.57;;
49444;SDS011;35323;43.080;-81.378;2023-04-16T00:09:03;17.20;;;9.60;;
49444;SDS011;35323;43.080;-81.378;2023-04-16T00:11:31;10.88;;;9.32;;
49444;SDS011;35323;43.080;-81.378;2023-04-16T00:13:58;11.23;;;9.82;;
49444;SDS011;35323;43.080;-81.378;2023-04-16T00:16:26;15.00;;;10.20;;
49444;SDS011;35323;43.080;-81.378;2023-04-16T00:18:54;12.43;;;9.70;;
49444;SDS011;35323;43.080;-81.378;2023-04-16T00:21:21;10.20;;;8.80;;
49444;SDS011;35323;43.080;-81.378;2023-04-16T00:23:49;15.32;;;9.82;;
49444;SDS011;35323;43.080;-81.378;2023-04-16T00:26:16;17.27;;;10.38;;
49444;SDS011;35323;43.080;-81.378;2023-04-16T00:28:44;15.98;;;10.60;;
49444;SDS011;35323;43.080;-81.378;2023-04-16T00:31:12;10.00;;;8.15;;
49444;SDS011;35323;43.080;-81.378;2023-04-16T00:33:39;10.20;;;9.05;;
49444;SDS011;35323;43.080;-81.378;2023-04-16T00:36:08;11.02;;;8.85;;
49444;SDS011;35323;43.080;-81.378;2023-04-16T00:38:36;9.27;;;7.93;;
49444;SDS011;35323;43.080;-81.378;2023-04-16T00:41:03;9.15;;;7.50;;
49444;SDS011;35323;43.080;-81.378;2023-04-16T00:43:31;11.57;;;8.07;;
49444;SDS011;35323;43.080;-81.378;2023-04-16T00:45:58;12.55;;;9.10;;
49444;SDS011;35323;43.080;-81.378;2023-04-16T00:48:27;11.38;;;7.30;;
49444;SDS011;35323;43.080;-81.378;2023-04-16T00:50:54;14.82;;;10.70;;
49444;SDS011;35323;43.080;-81.378;2023-04-16T00:53:22;14.48;;;10.77;;
49444;SDS011;35323;43.080;-81.378;2023-04-16T00:55:49;10.50;;;9.40;;
49444;SDS011;35323;43.080;-81.378;2023-04-16T00:58:23;12.70;;;10.02;;
49444;SDS011;35323;43.080;-81.378;2023-04-16T01:00:51;13.07;;;10.30;;
49444;SDS011;35323;43.080;-81.378;2023-04-16T01:03:19;14.48;;;11.63;;
49444;SDS011;35323;43.080;-81.378;2023-04-16T01:05:47;18.42;;;11.75;;
49444;SDS011;35323;43.080;-81.378;2023-04-16T01:08:19;16.95;;;11.50;;
49444;SDS011;35323;43.080;-81.378;2023-04-16T01:10:47;15.65;;;12.52;;
49444;SDS011;35323;43.080;-81.378;2023-04-16T01:13:15;14.10;;;12.18;;
49444;SDS011;35323;43.080;-81.378;2023-04-16T01:15:42;13.57;;;12.10;;
49444;SDS011;35323;43.080;-81.378;2023-04-16T01:18:16;11.82;;;10.10;;
49444;SDS011;35323;43.080;-81.378;2023-04-16T01:20:44;20.85;;;16.00;;
49444;SDS011;35323;43.080;-81.378;2023-04-16T01:23:12;13.30;;;11.95;;
49444;SDS011;35323;43.080;-81.378;2023-04-16T01:25:40;16.40;;;10.55;;
49444;SDS011;35323;43.080;-81.378;2023-04-16T01:28:07;15.40;;;12.00;;
49444;SDS011;35323;43.080;-81.378;2023-04-16T01:30:38;15.88;;;11.07;;
49444;SDS011;35323;43.080;-81.378;2023-04-16T01:33:05;14.13;;;10.40;;
49444;SDS011;35323;43.080;-81.378;2023-04-16T01:35:34;11.90;;;9.25;;
49444;SDS011;35323;43.080;-81.378;2023-04-16T01:38:02;11.63;;;8.57;;
49444;SDS011;35323;43.080;-81.378;2023-04-16T01:40:29;15.48;;;10.82;;
49444;SDS011;35323;43.080;-81.378;2023-04-16T01:42:57;13.07;;;10.65;;
49444;SDS011;35323;43.080;-81.378;2023-04-16T01:45:24;11.52;;;9.45;;
49444;SDS011;35323;43.080;-81.378;2023-04-16T01:47:52;12.30;;;10.15;;
49444;SDS011;35323;43.080;-81.378;2023-04-16T01:50:19;12.70;;;11.48;;
49444;SDS011;35323;43.080;-81.378;2023-04-16T01:52:47;13.35;;;11.73;;
49444;SDS011;35323;43.080;-81.378;2023-04-16T01:55:14;15.15;;;12.27;;
49444;SDS011;35323;43.080;-81.378;2023-04-16T01:57:42;14.80;;;11.02;;
49444;SDS011;35323;43.080;-81.378;2023-04-16T02:00:10;16.25;;;12.63;;
49444;SDS011;35323;43.080;-81.378;2023-04-16T02:02:39;14.00;;;12.63;;
49444;SDS011;35323;43.080;-81.378;2023-04-16T02:05:07;17.95;;;14.27;;
49444;SDS011;35323;43.080;-81.378;2023-04-16T02:07:35;15.98;;;12.52;;
49444;SDS011;35323;43.080;-81.378;2023-04-16T02:10:02;17.15;;;10.32;;
49444;SDS011;35323;43.080;-81.378;2023-04-16T02:12:31;13.80;;;10.93;;
49444;SDS011;35323;43.080;-81.378;2023-04-16T02:14:59;12.45;;;10.85;;
49444;SDS011;35323;43.080;-81.378;2023-04-16T02:17:27;9.90;;;8.68;;
49444;SDS011;35323;43.080;-81.378;2023-04-16T02:19:57;10.65;;;8.73;;
49444;SDS011;35323;43.080;-81.378;2023-04-16T02:22:25;10.32;;;9.27;;
49444;SDS011;35323;43.080;-81.378;2023-04-16T02:24:52;9.45;;;8.05;;
49444;SDS011;35323;43.080;-81.378;2023-04-16T02:27:27;9.20;;;8.30;;
49444;SDS011;35323;43.080;-81.378;2023-04-16T02:29:54;10.70;;;9.27;;
49444;SDS011;35323;43.080;-81.378;2023-04-16T02:32:22;11.18;;;7.43;;
49444;SDS011;35323;43.080;-81.378;2023-04-16T02:34:50;12.10;;;8.07;;
49444;SDS011;35323;43.080;-81.378;2023-04-16T02:37:17;12.80;;;8.32;;
49444;SDS011;35323;43.080;-81.378;2023-04-16T02:39:45;10.45;;;7.60;;
49444;SDS011;35323;43.080;-81.378;2023-04-16T02:42:13;7.38;;;6.55;;
49444;SDS011;35323;43.080;-81.378;2023-04-16T02:44:41;8.98;;;8.02;;
49444;SDS011;35323;43.080;-81.378;2023-04-16T02:47:09;10.68;;;8.38;;
49444;SDS011;35323;43.080;-81.378;2023-04-16T02:49:36;9.05;;;8.00;;
49444;SDS011;35323;43.080;-81.378;2023-04-16T02:52:04;7.03;;;6.35;;
49444;SDS011;35323;43.080;-81.378;2023-04-16T02:54:31;9.77;;;7.05;;
49444;SDS011;35323;43.080;-81.378;2023-04-16T02:56:59;11.77;;;7.38;;
49444;SDS011;35323;43.080;-81.378;2023-04-16T02:59:28;7.10;;;5.60;;
49444;SDS011;35323;43.080;-81.378;2023-04-16T03:01:55;8.43;;;6.43;;
49444;SDS011;35323;43.080;-81.378;2023-04-16T03:04:23;7.38;;;5.88;;
49444;SDS011;35323;43.080;-81.378;2023-04-16T03:06:50;8.27;;;5.85;;
49444;SDS011;35323;43.080;-81.378;2023-04-16T03:09:18;9.45;;;5.45;;
49444;SDS011;35323;43.080;-81.378;2023-04-16T03:11:46;6.88;;;4.80;;
49444;SDS011;35323;43.080;-81.378;2023-04-16T03:14:13;7.57;;;5.15;;
49444;SDS011;35323;43.080;-81.378;2023-04-16T03:16:41;8.70;;;5.57;;
49444;SDS011;35323;43.080;-81.378;2023-04-16T03:19:10;9.32;;;5.90;;
49444;SDS011;35323;43.080;-81.378;2023-04-16T03:21:37;8.63;;;6.20;;
49444;SDS011;35323;43.080;-81.378;2023-04-16T03:24:05;8.48;;;6.40;;
49444;SDS011;35323;43.080;-81.378;2023-04-16T03:26:33;9.40;;;7.47;;
49444;SDS011;35323;43.080;-81.378;2023-04-16T03:29:00;6.63;;;5.50;;
49444;SDS011;35323;43.080;-81.378;2023-04-16T03:31:31;7.88;;;5.75;;
49444;SDS011;35323;43.080;-81.378;2023-04-16T03:33:58;8.90;;;6.32;;
49444;SDS011;35323;43.080;-81.378;2023-04-16T03:36:26;15.90;;;7.25;;
49444;SDS011;35323;43.080;-81.378;2023-04-16T03:38:53;8.85;;;7.03;;
49444;SDS011;35323;43.080;-81.378;2023-04-16T03:41:21;6.32;;;4.78;;
49444;SDS011;35323;43.080;-81.378;2023-04-16T03:43:48;7.00;;;6.07;;
49444;SDS011;35323;43.080;-81.378;2023-04-16T03:46:16;7.30;;;5.22;;
49444;SDS011;35323;43.080;-81.378;2023-04-16T03:48:43;6.00;;;5.40;;
49444;SDS011;35323;43.080;-81.378;2023-04-16T03:51:11;6.65;;;5.97;;
49444;SDS011;35323;43.080;-81.378;2023-04-16T03:53:39;7.88;;;5.47;;
49444;SDS011;35323;43.080;-81.378;2023-04-16T03:56:07;5.47;;;4.97;;
49444;SDS011;35323;43.080;-81.378;2023-04-16T03:58:35;5.57;;;5.07;;
49444;SDS011;35323;43.080;-81.378;2023-04-16T04:01:02;6.00;;;5.05;;
49444;SDS011;35323;43.080;-81.378;2023-04-16T04:03:30;9.13;;;5.85;;
49444;SDS011;35323;43.080;-81.378;2023-04-16T04:05:57;7.90;;;5.63;;
49444;SDS011;35323;43.080;-81.378;2023-04-16T04:08:25;6.55;;;5.95;;
49444;SDS011;35323;43.080;-81.378;2023-04-16T04:10:53;8.55;;;4.85;;
49444;SDS011;35323;43.080;-81.378;2023-04-16T04:13:20;6.90;;;5.60;;
49444;SDS011;35323;43.080;-81.378;2023-04-16T04:15:48;8.40;;;5.63;;
49444;SDS011;35323;43.080;-81.378;2023-04-16T04:18:15;7.13;;;5.72;;
49444;SDS011;35323;43.080;-81.378;2023-04-16T04:20:43;6.82;;;5.40;;
49444;SDS011;35323;43.080;-81.378;2023-04-16T04:23:11;7.13;;;5.53;;
49444;SDS011;35323;43.080;-81.378;2023-04-16T04:25:38;7.32;;;5.43;;
49444;SDS011;35323;43.080;-81.378;2023-04-16T04:28:06;8.10;;;5.30;;
49444;SDS011;35323;43.080;-81.378;2023-04-16T04:30:36;7.28;;;6.30;;
49444;SDS011;35323;43.080;-81.378;2023-04-16T04:33:04;7.05;;;6.30;;
49444;SDS011;35323;43.080;-81.378;2023-04-16T04:35:32;6.55;;;5.38;;
49444;SDS011;35323;43.080;-81.378;2023-04-16T04:38:00;5.03;;;4.35;;
49444;SDS011;35323;43.080;-81.378;2023-04-16T04:40:30;6.07;;;5.07;;
49444;SDS011;35323;43.080;-81.378;2023-04-16T04:42:57;5.90;;;5.40;;
49444;SDS011;35323;43.080;-81.378;2023-04-16T04:45:25;6.43;;;5.32;;
49444;SDS011;35323;43.080;-81.378;2023-04-16T04:47:55;7.20;;;5.70;;
49444;SDS011;35323;43.080;-81.378;2023-04-16T04:50:23;6.97;;;5.13;;
49444;SDS011;35323;43.080;-81.378;2023-04-16T04:52:50;6.97;;;5.38;;
49444;SDS011;35323;43.080;-81.378;2023-04-16T04:55:20;6.95;;;6.03;;
49444;SDS011;35323;43.080;-81.378;2023-04-16T04:57:48;7.10;;;4.82;;
49444;SDS011;35323;43.080;-81.378;2023-04-16T05:00:15;10.38;;;6.65;;
49444;SDS011;35323;43.080;-81.378;2023-04-16T05:02:43;7.05;;;5.70;;
49444;SDS011;35323;43.080;-81.378;2023-04-16T05:05:11;6.85;;;6.18;;
49444;SDS011;35323;43.080;-81.378;2023-04-16T05:07:39;7.45;;;5.32;;
49444;SDS011;35323;43.080;-81.378;2023-04-16T05:10:07;6.60;;;6.00;;
49444;SDS011;35323;43.080;-81.378;2023-04-16T05:12:34;8.20;;;5.45;;
49444;SDS011;35323;43.080;-81.378;2023-04-16T05:15:02;9.05;;;5.90;;
49444;SDS011;35323;43.080;-81.378;2023-04-16T05:17:32;7.47;;;6.78;;
49444;SDS011;35323;43.080;-81.378;2023-04-16T05:20:00;7.75;;;6.22;;
49444;SDS011;35323;43.080;-81.378;2023-04-16T05:22:27;6.25;;;4.00;;
49444;SDS011;35323;43.080;-81.378;2023-04-16T05:24:55;7.03;;;5.68;;
49444;SDS011;35323;43.080;-81.378;2023-04-16T05:27:23;5.00;;;4.53;;
49444;SDS011;35323;43.080;-81.378;2023-04-16T05:29:53;6.00;;;5.13;;
49444;SDS011;35323;43.080;-81.378;2023-04-16T05:32:21;8.10;;;5.28;;
49444;SDS011;35323;43.080;-81.378;2023-04-16T05:34:49;6.95;;;5.88;;
49444;SDS011;35323;43.080;-81.378;2023-04-16T05:37:17;9.77;;;5.00;;
49444;SDS011;35323;43.080;-81.378;2023-04-16T05:39:44;5.78;;;5.28;;
49444;SDS011;35323;43.080;-81.378;2023-04-16T05:42:15;7.68;;;6.10;;
49444;SDS011;35323;43.080;-81.378;2023-04-16T05:44:42;6.95;;;4.65;;
49444;SDS011;35323;43.080;-81.378;2023-04-16T05:47:10;7.45;;;5.57;;
49444;SDS011;35323;43.080;-81.378;2023-04-16T05:49:37;12.65;;;6.18;;
49444;SDS011;35323;43.080;-81.378;2023-04-16T05:52:05;6.10;;;4.78;;
49444;SDS011;35323;43.080;-81.378;2023-04-16T05:54:33;5.85;;;5.35;;
49444;SDS011;35323;43.080;-81.378;2023-04-16T05:57:00;7.45;;;5.15;;
49444;SDS011;35323;43.080;-81.378;2023-04-16T05:59:28;7.22;;;5.65;;
49444;SDS011;35323;43.080;-81.378;2023-04-16T06:01:56;5.78;;;5.28;;
49444;SDS011;35323;43.080;-81.378;2023-04-16T06:04:24;9.98;;;6.55;;
49444;SDS011;35323;43.080;-81.378;2023-04-16T06:06:52;7.35;;;6.43;;
49444;SDS011;35323;43.080;-81.378;2023-04-16T06:09:20;6.22;;;5.63;;
49444;SDS011;35323;43.080;-81.378;2023-04-16T06:11:48;7.57;;;5.82;;
49444;SDS011;35323;43.080;-81.378;2023-04-16T06:14:15;9.43;;;8.57;;
49444;SDS011;35323;43.080;-81.378;2023-04-16T06:16:42;9.93;;;7.32;;
49444;SDS011;35323;43.080;-81.378;2023-04-16T06:19:10;8.90;;;7.18;;
49444;SDS011;35323;43.080;-81.378;2023-04-16T06:21:38;9.18;;;8.23;;
49444;SDS011;35323;43.080;-81.378;2023-04-16T06:24:06;9.57;;;8.63;;
49444;SDS011;35323;43.080;-81.378;2023-04-16T06:26:33;10.05;;;8.30;;
49444;SDS011;35323;43.080;-81.378;2023-04-16T06:29:01;9.05;;;7.15;;
49444;SDS011;35323;43.080;-81.378;2023-04-16T06:31:29;10.38;;;8.75;;
49444;SDS011;35323;43.080;-81.378;2023-04-16T06:33:59;8.95;;;7.90;;
49444;SDS011;35323;43.080;-81.378;2023-04-16T06:36:27;8.30;;;7.38;;
49444;SDS011;35323;43.080;-81.378;2023-04-16T06:38:57;12.25;;;9.27;;
49444;SDS011;35323;43.080;-81.378;2023-04-16T06:41:25;11.95;;;10.00;;
49444;SDS011;35323;43.080;-81.378;2023-04-16T06:43:53;11.57;;;10.38;;
49444;SDS011;35323;43.080;-81.378;2023-04-16T06:46:21;9.85;;;8.63;;
49444;SDS011;35323;43.080;-81.378;2023-04-16T06:48:49;9.48;;;8.32;;
49444;SDS011;35323;43.080;-81.378;2023-04-16T06:51:18;10.10;;;7.68;;
49444;SDS011;35323;43.080;-81.378;2023-04-16T06:53:45;8.27;;;7.07;;
49444;SDS011;35323;43.080;-81.378;2023-04-16T06:56:13;8.55;;;6.85;;
49444;SDS011;35323;43.080;-81.378;2023-04-16T06:58:40;7.80;;;6.57;;
49444;SDS011;35323;43.080;-81.378;2023-04-16T07:01:07;8.30;;;7.45;;
49444;SDS011;35323;43.080;-81.378;2023-04-16T07:03:36;7.10;;;5.40;;
49444;SDS011;35323;43.080;-81.378;2023-04-16T07:06:04;7.00;;;6.13;;
49444;SDS011;35323;43.080;-81.378;2023-04-16T07:08:35;6.38;;;5.55;;
49444;SDS011;35323;43.080;-81.378;2023-04-16T07:11:02;6.55;;;5.28;;
49444;SDS011;35323;43.080;-81.378;2023-04-16T07:13:30;7.35;;;6.45;;
49444;SDS011;35323;43.080;-81.378;2023-04-16T07:15:57;6.82;;;6.22;;
49444;SDS011;35323;43.080;-81.378;2023-04-16T07:18:25;8.65;;;6.28;;
49444;SDS011;35323;43.080;-81.378;2023-04-16T07:20:52;6.85;;;6.13;;
49444;SDS011;35323;43.080;-81.378;2023-04-16T07:23:20;6.70;;;6.00;;
49444;SDS011;35323;43.080;-81.378;2023-04-16T07:25:47;8.70;;;6.30;;
49444;SDS011;35323;43.080;-81.378;2023-04-16T07:28:14;7.05;;;5.93;;
49444;SDS011;35323;43.080;-81.378;2023-04-16T07:30:45;8.35;;;5.75;;
49444;SDS011;35323;43.080;-81.378;2023-04-16T07:33:12;6.28;;;5.63;;
49444;SDS011;35323;43.080;-81.378;2023-04-16T07:35:40;7.22;;;6.38;;
49444;SDS011;35323;43.080;-81.378;2023-04-16T07:38:07;11.85;;;7.05;;
49444;SDS011;35323;43.080;-81.378;2023-04-16T07:40:36;8.25;;;7.05;;
49444;SDS011;35323;43.080;-81.378;2023-04-16T07:43:04;8.73;;;7.15;;
49444;SDS011;35323;43.080;-81.378;2023-04-16T07:45:31;8.23;;;6.95;;
49444;SDS011;35323;43.080;-81.378;2023-04-16T07:47:59;7.53;;;6.22;;
49444;SDS011;35323;43.080;-81.378;2023-04-16T07:50:26;8.25;;;7.43;;
49444;SDS011;35323;43.080;-81.378;2023-04-16T07:52:54;8.98;;;8.05;;
49444;SDS011;35323;43.080;-81.378;2023-04-16T07:55:21;9.57;;;6.57;;
49444;SDS011;35323;43.080;-81.378;2023-04-16T07:57:49;8.52;;;6.80;;
49444;SDS011;35323;43.080;-81.378;2023-04-16T08:00:17;7.57;;;6.65;;
49444;SDS011;35323;43.080;-81.378;2023-04-16T08:02:47;9.02;;;7.65;;
49444;SDS011;35323;43.080;-81.378;2023-04-16T08:05:15;10.23;;;8.57;;
49444;SDS011;35323;43.080;-81.378;2023-04-16T08:07:43;8.77;;;7.35;;
49444;SDS011;35323;43.080;-81.378;2023-04-16T08:10:10;9.27;;;8.38;;
49444;SDS011;35323;43.080;-81.378;2023-04-16T08:12:38;9.10;;;8.15;;
49444;SDS011;35323;43.080;-81.378;2023-04-16T08:15:06;7.10;;;6.38;;
49444;SDS011;35323;43.080;-81.378;2023-04-16T08:17:34;8.02;;;7.25;;
49444;SDS011;35323;43.080;-81.378;2023-04-16T08:20:02;8.90;;;7.53;;
49444;SDS011;35323;43.080;-81.378;2023-04-16T08:22:33;9.02;;;7.47;;
49444;SDS011;35323;43.080;-81.378;2023-04-16T08:25:03;6.55;;;5.88;;
49444;SDS011;35323;43.080;-81.378;2023-04-16T08:27:31;8.27;;;7.47;;
49444;SDS011;35323;43.080;-81.378;2023-04-16T08:29:59;7.63;;;6.68;;
49444;SDS011;35323;43.080;-81.378;2023-04-16T08:32:26;11.40;;;8.35;;
49444;SDS011;35323;43.080;-81.378;2023-04-16T08:34:56;8.25;;;7.50;;
49444;SDS011;35323;43.080;-81.378;2023-04-16T08:37:24;8.32;;;6.88;;
49444;SDS011;35323;43.080;-81.378;2023-04-16T08:39:52;10.80;;;8.75;;
49444;SDS011;35323;43.080;-81.378;2023-04-16T08:42:24;8.95;;;8.00;;
49444;SDS011;35323;43.080;-81.378;2023-04-16T08:45:06;9.95;;;7.93;;
49444;SDS011;35323;43.080;-81.378;2023-04-16T08:47:34;7.82;;;7.07;;
49444;SDS011;35323;43.080;-81.378;2023-04-16T08:50:05;9.38;;;8.45;;
49444;SDS011;35323;43.080;-81.378;2023-04-16T08:52:35;9.15;;;8.25;;
49444;SDS011;35323;43.080;-81.378;2023-04-16T08:55:05;8.85;;;7.30;;
49444;SDS011;35323;43.080;-81.378;2023-04-16T08:57:40;11.07;;;9.00;;
49444;SDS011;35323;43.080;-81.378;2023-04-16T09:00:10;8.55;;;7.53;;
49444;SDS011;35323;43.080;-81.378;2023-04-16T09:02:38;8.68;;;7.25;;
49444;SDS011;35323;43.080;-81.378;2023-04-16T09:05:06;10.18;;;8.40;;
49444;SDS011;35323;43.080;-81.378;2023-04-16T09:07:34;9.88;;;7.70;;
49444;SDS011;35323;43.080;-81.378;2023-04-16T09:10:02;12.48;;;8.13;;
49444;SDS011;35323;43.080;-81.378;2023-04-16T09:12:32;8.07;;;6.20;;
49444;SDS011;35323;43.080;-81.378;2023-04-16T09:14:59;11.38;;;8.65;;
49444;SDS011;35323;43.080;-81.378;2023-04-16T09:17:28;9.00;;;7.93;;
49444;SDS011;35323;43.080;-81.378;2023-04-16T09:19:56;9.68;;;8.15;;
49444;SDS011;35323;43.080;-81.378;2023-04-16T09:22:24;7.20;;;6.05;;
49444;SDS011;35323;43.080;-81.378;2023-04-16T09:24:51;10.13;;;7.50;;
49444;SDS011;35323;43.080;-81.378;2023-04-16T09:27:19;10.27;;;9.15;;
49444;SDS011;35323;43.080;-81.378;2023-04-16T09:29:50;10.00;;;8.00;;
49444;SDS011;35323;43.080;-81.378;2023-04-16T09:32:23;8.15;;;7.32;;
49444;SDS011;35323;43.080;-81.378;2023-04-16T09:37:18;7.88;;;6.15;;
49444;SDS011;35323;43.080;-81.378;2023-04-16T09:39:57;7.00;;;6.22;;
49444;SDS011;35323;43.080;-81.378;2023-04-16T09:42:28;9.15;;;6.93;;
49444;SDS011;35323;43.080;-81.378;2023-04-16T09:44:57;8.43;;;7.60;;
49444;SDS011;35323;43.080;-81.378;2023-04-16T09:47:40;10.60;;;6.82;;
49444;SDS011;35323;43.080;-81.378;2023-04-16T09:50:09;7.90;;;5.72;;
49444;SDS011;35323;43.080;-81.378;2023-04-16T09:52:38;8.45;;;7.07;;
49444;SDS011;35323;43.080;-81.378;2023-04-16T09:55:06;7.90;;;6.63;;
49444;SDS011;35323;43.080;-81.378;2023-04-16T09:57:35;8.05;;;7.00;;
49444;SDS011;35323;43.080;-81.378;2023-04-16T10:00:04;10.93;;;6.78;;
49444;SDS011;35323;43.080;-81.378;2023-04-16T10:02:34;8.38;;;6.88;;
49444;SDS011;35323;43.080;-81.378;2023-04-16T10:05:05;9.43;;;7.68;;
49444;SDS011;35323;43.080;-81.378;2023-04-16T10:07:33;11.48;;;7.70;;
49444;SDS011;35323;43.080;-81.378;2023-04-16T10:10:01;7.75;;;6.60;;
49444;SDS011;35323;43.080;-81.378;2023-04-16T10:12:29;7.93;;;6.20;;
49444;SDS011;35323;43.080;-81.378;2023-04-16T10:14:58;11.23;;;9.02;;
49444;SDS011;35323;43.080;-81.378;2023-04-16T10:17:28;9.88;;;6.85;;
49444;SDS011;35323;43.080;-81.378;2023-04-16T10:19:56;8.63;;;5.80;;
49444;SDS011;35323;43.080;-81.378;2023-04-16T10:22:24;10.23;;;7.65;;
49444;SDS011;35323;43.080;-81.378;2023-04-16T10:24:52;7.60;;;6.90;;
49444;SDS011;35323;43.080;-81.378;2023-04-16T10:27:20;9.68;;;8.57;;
49444;SDS011;35323;43.080;-81.378;2023-04-16T10:29:48;7.63;;;6.85;;
49444;SDS011;35323;43.080;-81.378;2023-04-16T10:32:16;11.00;;;7.05;;
49444;SDS011;35323;43.080;-81.378;2023-04-16T10:34:44;12.52;;;8.02;;
49444;SDS011;35323;43.080;-81.378;2023-04-16T10:37:13;9.65;;;7.18;;
49444;SDS011;35323;43.080;-81.378;2023-04-16T10:39:43;9.95;;;8.82;;
49444;SDS011;35323;43.080;-81.378;2023-04-16T10:42:11;12.60;;;10.25;;
49444;SDS011;35323;43.080;-81.378;2023-04-16T10:44:39;11.32;;;9.43;;
49444;SDS011;35323;43.080;-81.378;2023-04-16T10:47:11;8.88;;;7.93;;
49444;SDS011;35323;43.080;-81.378;2023-04-16T10:49:40;11.13;;;7.38;;
49444;SDS011;35323;43.080;-81.378;2023-04-16T10:52:14;8.88;;;7.72;;
49444;SDS011;35323;43.080;-81.378;2023-04-16T10:54:45;9.20;;;7.85;;
49444;SDS011;35323;43.080;-81.378;2023-04-16T10:57:16;10.40;;;9.40;;
49444;SDS011;35323;43.080;-81.378;2023-04-16T10:59:44;10.15;;;8.52;;
49444;SDS011;35323;43.080;-81.378;2023-04-16T11:02:13;10.75;;;9.35;;
49444;SDS011;35323;43.080;-81.378;2023-04-16T11:04:42;11.57;;;8.93;;
49444;SDS011;35323;43.080;-81.378;2023-04-16T11:09:55;26.08;;;10.98;;
49444;SDS011;35323;43.080;-81.378;2023-04-16T11:12:31;11.55;;;8.68;;
49444;SDS011;35323;43.080;-81.378;2023-04-16T11:15:06;11.38;;;10.27;;
49444;SDS011;35323;43.080;-81.378;2023-04-16T11:17:38;15.20;;;10.65;;
49444;SDS011;35323;43.080;-81.378;2023-04-16T11:20:16;10.13;;;9.23;;
49444;SDS011;35323;43.080;-81.378;2023-04-16T11:22:46;12.68;;;9.55;;
49444;SDS011;35323;43.080;-81.378;2023-04-16T11:25:24;12.80;;;10.07;;
49444;SDS011;35323;43.080;-81.378;2023-04-16T11:27:52;10.63;;;7.82;;
49444;SDS011;35323;43.080;-81.378;2023-04-16T11:30:32;9.25;;;8.00;;
49444;SDS011;35323;43.080;-81.378;2023-04-16T11:33:04;11.45;;;9.38;;
49444;SDS011;35323;43.080;-81.378;2023-04-16T11:35:31;11.43;;;7.47;;
49444;SDS011;35323;43.080;-81.378;2023-04-16T11:37:59;10.73;;;7.75;;
49444;SDS011;35323;43.080;-81.378;2023-04-16T11:40:30;10.02;;;8.23;;
49444;SDS011;35323;43.080;-81.378;2023-04-16T11:43:11;9.57;;;7.35;;
49444;SDS011;35323;43.080;-81.378;2023-04-16T11:46:01;10.40;;;7.60;;
49444;SDS011;35323;43.080;-81.378;2023-04-16T11:48:51;10.57;;;8.57;;
49444;SDS011;35323;43.080;-81.378;2023-04-16T11:51:19;9.35;;;8.07;;
49444;SDS011;35323;43.080;-81.378;2023-04-16T11:53:50;11.15;;;7.60;;
49444;SDS011;35323;43.080;-81.378;2023-04-16T11:56:28;10.43;;;9.38;;
49444;SDS011;35323;43.080;-81.378;2023-04-16T11:59:09;10.20;;;7.75;;
49444;SDS011;35323;43.080;-81.378;2023-04-16T12:01:38;11.65;;;8.95;;
49444;SDS011;35323;43.080;-81.378;2023-04-16T12:04:07;13.93;;;8.30;;
49444;SDS011;35323;43.080;-81.378;2023-04-16T12:06:35;12.15;;;7.30;;
49444;SDS011;35323;43.080;-81.378;2023-04-16T12:09:21;11.90;;;9.88;;
49444;SDS011;35323;43.080;-81.378;2023-04-16T12:11:49;10.40;;;8.32;;
49444;SDS011;35323;43.080;-81.378;2023-04-16T12:14:17;8.82;;;7.93;;
49444;SDS011;35323;43.080;-81.378;2023-04-16T12:16:45;8.25;;;6.65;;
49444;SDS011;35323;43.080;-81.378;2023-04-16T12:19:13;8.98;;;7.93;;
49444;SDS011;35323;43.080;-81.378;2023-04-16T12:21:44;9.23;;;8.05;;
49444;SDS011;35323;43.080;-81.378;2023-04-16T12:24:13;10.37;;;9.33;;
49444;SDS011;35323;43.080;-81.378;2023-04-16T12:26:41;10.82;;;9.45;;
49444;SDS011;35323;43.080;-81.378;2023-04-16T12:29:13;9.02;;;7.60;;
49444;SDS011;35323;43.080;-81.378;2023-04-16T12:31:41;9.82;;;8.27;;
49444;SDS011;35323;43.080;-81.378;2023-04-16T12:34:08;8.43;;;7.47;;
49444;SDS011;35323;43.080;-81.378;2023-04-16T12:36:40;10.50;;;8.15;;
49444;SDS011;35323;43.080;-81.378;2023-04-16T12:39:08;13.35;;;9.73;;
49444;SDS011;35323;43.080;-81.378;2023-04-16T12:41:38;10.38;;;8.60;;
49444;SDS011;35323;43.080;-81.378;2023-04-16T12:44:14;15.95;;;9.35;;
49444;SDS011;35323;43.080;-81.378;2023-04-16T12:46:43;10.00;;;8.85;;
49444;SDS011;35323;43.080;-81.378;2023-04-16T12:49:11;8.82;;;7.93;;
49444;SDS011;35323;43.080;-81.378;2023-04-16T12:51:38;9.90;;;8.65;;
49444;SDS011;35323;43.080;-81.378;2023-04-16T12:54:06;14.60;;;8.43;;
49444;SDS011;35323;43.080;-81.378;2023-04-16T12:56:34;9.43;;;7.85;;
49444;SDS011;35323;43.080;-81.378;2023-04-16T12:59:02;10.15;;;8.50;;
49444;SDS011;35323;43.080;-81.378;2023-04-16T13:01:29;10.13;;;7.95;;
49444;SDS011;35323;43.080;-81.378;2023-04-16T13:03:58;12.20;;;8.57;;
49444;SDS011;35323;43.080;-81.378;2023-04-16T13:06:28;10.43;;;8.38;;
49444;SDS011;35323;43.080;-81.378;2023-04-16T13:08:57;11.20;;;8.00;;
49444;SDS011;35323;43.080;-81.378;2023-04-16T13:11:25;9.98;;;7.65;;
49444;SDS011;35323;43.080;-81.378;2023-04-16T13:13:52;9.07;;;8.13;;
49444;SDS011;35323;43.080;-81.378;2023-04-16T13:16:20;8.75;;;7.80;;
49444;SDS011;35323;43.080;-81.378;2023-04-16T13:18:48;8.60;;;7.15;;
49444;SDS011;35323;43.080;-81.378;2023-04-16T13:21:15;8.85;;;7.55;;
49444;SDS011;35323;43.080;-81.378;2023-04-16T13:23:43;8.55;;;6.43;;
49444;SDS011;35323;43.080;-81.378;2023-04-16T13:26:11;8.95;;;8.07;;
49444;SDS011;35323;43.080;-81.378;2023-04-16T13:28:41;9.80;;;8.13;;
49444;SDS011;35323;43.080;-81.378;2023-04-16T13:31:11;8.93;;;7.45;;
49444;SDS011;35323;43.080;-81.378;2023-04-16T13:33:38;7.03;;;6.32;;
49444;SDS011;35323;43.080;-81.378;2023-04-16T13:36:06;9.32;;;6.38;;
49444;SDS011;35323;43.080;-81.378;2023-04-16T13:38:34;7.43;;;6.72;;
49444;SDS011;35323;43.080;-81.378;2023-04-16T13:41:02;7.53;;;6.82;;
49444;SDS011;35323;43.080;-81.378;2023-04-16T13:43:29;6.97;;;5.47;;
49444;SDS011;35323;43.080;-81.378;2023-04-16T13:45:57;8.43;;;7.00;;
49444;SDS011;35323;43.080;-81.378;2023-04-16T13:48:25;6.53;;;5.97;;
49444;SDS011;35323;43.080;-81.378;2023-04-16T13:50:52;8.13;;;6.50;;
49444;SDS011;35323;43.080;-81.378;2023-04-16T13:53:20;7.68;;;6.95;;
49444;SDS011;35323;43.080;-81.378;2023-04-16T13:55:48;7.22;;;6.53;;
49444;SDS011;35323;43.080;-81.378;2023-04-16T13:58:15;13.50;;;8.20;;
49444;SDS011;35323;43.080;-81.378;2023-04-16T14:00:46;7.88;;;5.80;;
49444;SDS011;35323;43.080;-81.378;2023-04-16T14:03:14;7.32;;;6.55;;
49444;SDS011;35323;43.080;-81.378;2023-04-16T14:05:42;6.97;;;5.85;;
49444;SDS011;35323;43.080;-81.378;2023-04-16T14:08:10;7.20;;;6.50;;
49444;SDS011;35323;43.080;-81.378;2023-04-16T14:10:40;7.60;;;6.85;;
49444;SDS011;35323;43.080;-81.378;2023-04-16T14:13:07;10.75;;;6.40;;
49444;SDS011;35323;43.080;-81.378;2023-04-16T14:15:36;5.88;;;4.95;;
49444;SDS011;35323;43.080;-81.378;2023-04-16T14:18:04;8.80;;;5.82;;
49444;SDS011;35323;43.080;-81.378;2023-04-16T14:20:32;8.88;;;6.38;;
49444;SDS011;35323;43.080;-81.378;2023-04-16T14:22:59;8.20;;;6.90;;
49444;SDS011;35323;43.080;-81.378;2023-04-16T14:25:27;6.65;;;6.00;;
49444;SDS011;35323;43.080;-81.378;2023-04-16T14:27:55;6.22;;;5.63;;
49444;SDS011;35323;43.080;-81.378;2023-04-16T14:30:22;6.55;;;5.93;;